Time;durP1;ratioP1;P1;durP2;ratioP2;P2;SDS_P1;SDS_P2;PMS_P1;PMS_P2;Temp;Humidity;BMP_temperature;BMP_pressure;BME280_temperature;BME280_humidity;BME280_pressure;Samples;Min_cycle;Max_cycle;Signal;HPM_P1;HPM_P2
2020/12/17 00:01:08;;;;;;;115.45;50.95;;;8.00;99.90;;;;;;5067240;28;20028;-78
2020/12/17 00:03:34;;;;;;;123.38;54.78;;;8.00;99.90;;;;;;5051692;28;20078;-78
2020/12/17 00:06:00;;;;;;;109.93;49.70;;;8.00;99.90;;;;;;5051245;28;20031;-78
2020/12/17 00:08:26;;;;;;;108.63;49.85;;;8.00;99.90;;;;;;5067203;28;20025;-78
2020/12/17 00:10:51;;;;;;;122.22;52.60;;;8.00;99.90;;;;;;5051701;28;20017;-78
2020/12/17 00:13:18;;;;;;;113.35;49.47;;;8.00;99.90;;;;;;5067102;28;20397;-78
2020/12/17 00:15:44;;;;;;;115.13;51.40;;;8.00;99.90;;;;;;5051375;28;20021;-78
2020/12/17 00:18:09;;;;;;;114.25;50.55;;;8.00;99.90;;;;;;5051550;28;20032;-78
2020/12/17 00:20:35;;;;;;;117.43;50.80;;;8.10;99.90;;;;;;5051662;28;20102;-78
2020/12/17 00:23:00;;;;;;;110.47;48.88;;;8.10;99.90;;;;;;5067039;28;20029;-78
2020/12/17 00:25:26;;;;;;;108.18;48.85;;;8.20;99.90;;;;;;5066895;28;20477;-78
2020/12/17 00:27:51;;;;;;;112.22;51.22;;;8.00;99.90;;;;;;5051456;28;20056;-78
2020/12/17 00:30:17;;;;;;;107.40;50.30;;;8.00;99.90;;;;;;5051582;28;20105;-78
2020/12/17 00:32:44;;;;;;;110.38;49.42;;;8.00;99.90;;;;;;5051421;28;20389;-78
2020/12/17 00:35:11;;;;;;;107.78;49.45;;;8.00;99.90;;;;;;5051223;28;20427;-78
2020/12/17 00:37:37;;;;;;;114.10;51.58;;;8.10;99.90;;;;;;5051358;28;20466;-78
2020/12/17 00:40:05;;;;;;;111.70;51.08;;;8.00;99.90;;;;;;5066886;28;20546;-79
2020/12/17 00:42:31;;;;;;;110.38;51.45;;;8.10;99.90;;;;;;5066843;28;20040;-78
2020/12/17 00:44:57;;;;;;;112.53;49.92;;;8.10;99.90;;;;;;5051274;28;20439;-78
2020/12/17 00:47:28;;;;;;;116.82;52.28;;;8.10;99.90;;;;;;5051071;28;20243;-78
2020/12/17 00:49:54;;;;;;;111.55;50.38;;;8.10;99.90;;;;;;5058383;28;20499;-79
2020/12/17 00:52:22;;;;;;;110.90;49.58;;;8.10;99.90;;;;;;5070098;28;20024;-78
2020/12/17 00:54:47;;;;;;;114.60;51.00;;;8.10;99.90;;;;;;5071125;28;20065;-78
2020/12/17 00:57:13;;;;;;;103.32;49.08;;;8.10;99.90;;;;;;5071227;28;20099;-78
2020/12/17 00:59:38;;;;;;;105.00;50.58;;;8.10;99.90;;;;;;5069968;28;20459;-78
2020/12/17 01:02:04;;;;;;;106.88;47.80;;;8.10;99.90;;;;;;5071258;28;20035;-78
2020/12/17 01:04:29;;;;;;;107.20;49.47;;;8.10;99.90;;;;;;5071063;28;20051;-78
2020/12/17 01:06:55;;;;;;;104.88;46.15;;;8.10;99.90;;;;;;5069841;28;20020;-78
2020/12/17 01:09:21;;;;;;;96.97;48.08;;;8.10;99.90;;;;;;5070950;28;20056;-78
2020/12/17 01:11:46;;;;;;;104.07;48.05;;;8.10;99.90;;;;;;5069770;28;20499;-78
2020/12/17 01:14:12;;;;;;;101.93;47.45;;;8.20;99.90;;;;;;5069783;28;20452;-78
2020/12/17 01:16:37;;;;;;;102.20;46.65;;;8.20;99.90;;;;;;5071087;28;20029;-78
2020/12/17 01:19:03;;;;;;;107.35;49.38;;;8.20;99.90;;;;;;5074340;28;20052;-78
2020/12/17 01:21:28;;;;;;;101.43;46.58;;;8.20;99.90;;;;;;5073447;28;20024;-78
2020/12/17 01:23:54;;;;;;;102.28;47.70;;;8.20;99.90;;;;;;5074403;28;20021;-79
2020/12/17 01:26:20;;;;;;;96.90;46.92;;;8.20;99.90;;;;;;5074498;28;20027;-78
2020/12/17 01:28:45;;;;;;;99.60;44.72;;;8.30;99.90;;;;;;5073191;28;20025;-78
2020/12/17 01:31:13;;;;;;;88.38;44.83;;;8.20;99.90;;;;;;5073145;28;20064;-78
2020/12/17 01:33:39;;;;;;;91.35;47.42;;;8.20;99.90;;;;;;5074396;28;20021;-78
2020/12/17 01:36:07;;;;;;;104.45;47.58;;;8.20;99.90;;;;;;5072971;28;20485;-78
2020/12/17 01:38:34;;;;;;;99.43;46.80;;;8.20;99.90;;;;;;5074334;28;20039;-78
2020/12/17 01:41:00;;;;;;;101.28;49.22;;;8.20;99.90;;;;;;5074385;28;20111;-78
2020/12/17 01:43:26;;;;;;;91.93;46.58;;;8.20;99.90;;;;;;5072985;28;20181;-78
2020/12/17 01:45:52;;;;;;;93.97;44.63;;;8.20;99.90;;;;;;5073862;28;20520;-78
2020/12/17 01:48:19;;;;;;;93.75;45.13;;;8.20;99.90;;;;;;5074154;28;20024;-78
2020/12/17 01:50:45;;;;;;;98.88;46.50;;;8.20;99.90;;;;;;5059971;28;20029;-78
2020/12/17 01:53:12;;;;;;;92.95;46.85;;;8.20;99.90;;;;;;5052828;28;20021;-79
2020/12/17 01:55:38;;;;;;;99.05;46.05;;;8.10;99.90;;;;;;5053761;28;20393;-78
2020/12/17 01:58:04;;;;;;;94.45;46.65;;;8.20;99.90;;;;;;5053684;28;20021;-79
2020/12/17 02:00:37;;;;;;;96.35;45.42;;;8.20;99.90;;;;;;5053950;28;20446;-78
2020/12/17 02:03:06;;;;;;;96.77;47.70;;;8.30;99.90;;;;;;5052773;28;20099;-79
2020/12/17 02:05:32;;;;;;;91.57;43.83;;;8.20;99.90;;;;;;5052395;28;20025;-78
2020/12/17 02:08:00;;;;;;;96.10;44.13;;;8.10;99.90;;;;;;5052392;28;20035;-78
2020/12/17 02:10:27;;;;;;;94.53;45.05;;;8.10;99.90;;;;;;5053964;28;20393;-78
2020/12/17 02:12:52;;;;;;;94.90;45.13;;;8.10;99.90;;;;;;5053894;28;20056;-78
2020/12/17 02:15:20;;;;;;;86.78;43.88;;;8.10;99.90;;;;;;5053729;28;20056;-78
2020/12/17 02:17:47;;;;;;;86.75;44.38;;;8.10;99.90;;;;;;5053575;28;20037;-78
2020/12/17 02:20:13;;;;;;;86.18;43.58;;;8.10;99.90;;;;;;5053678;28;20028;-78
2020/12/17 02:22:40;;;;;;;94.55;43.35;;;8.00;99.90;;;;;;5052289;28;20397;-78
2020/12/17 02:25:11;;;;;;;89.43;42.25;;;8.10;99.90;;;;;;5051891;28;20028;-78
2020/12/17 02:27:37;;;;;;;80.55;41.60;;;8.10;99.90;;;;;;5053399;28;20033;-78
2020/12/17 02:30:05;;;;;;;79.53;41.72;;;8.10;99.90;;;;;;5053329;28;20032;-78
2020/12/17 02:32:31;;;;;;;84.15;43.53;;;8.10;99.90;;;;;;5053328;28;20032;-78
2020/12/17 02:34:57;;;;;;;81.22;41.38;;;8.10;99.90;;;;;;5053078;28;20386;-78
2020/12/17 02:37:22;;;;;;;80.82;43.13;;;8.10;99.90;;;;;;5051891;28;20025;-79
2020/12/17 02:39:48;;;;;;;82.82;41.65;;;8.00;99.90;;;;;;5053050;28;20028;-78
2020/12/17 02:42:13;;;;;;;78.78;40.35;;;8.00;99.90;;;;;;5053143;28;20048;-78
2020/12/17 02:44:39;;;;;;;87.57;44.50;;;7.90;99.90;;;;;;5051651;28;20515;-78
2020/12/17 02:47:05;;;;;;;95.03;44.13;;;8.10;99.90;;;;;;5052862;28;20032;-78
2020/12/17 02:49:31;;;;;;;88.40;42.17;;;8.00;99.90;;;;;;5052924;28;20029;-78
2020/12/17 02:51:56;;;;;;;87.78;40.90;;;8.00;99.90;;;;;;5052974;28;20029;-78
2020/12/17 02:54:22;;;;;;;87.43;43.13;;;8.00;99.90;;;;;;5067888;28;20024;-78
2020/12/17 02:56:47;;;;;;;92.68;40.67;;;8.00;99.90;;;;;;5052774;28;20017;-78
2020/12/17 02:59:13;;;;;;;86.10;43.58;;;7.90;99.90;;;;;;5052792;28;20037;-78
2020/12/17 03:01:39;;;;;;;80.47;41.17;;;8.00;99.90;;;;;;5052764;28;20021;-78
2020/12/17 03:04:04;;;;;;;79.68;42.30;;;8.00;99.90;;;;;;5067929;28;20385;-78
2020/12/17 03:06:30;;;;;;;86.38;41.67;;;8.00;99.90;;;;;;5052624;28;20032;-78
2020/12/17 03:08:56;;;;;;;85.25;43.42;;;8.00;99.90;;;;;;5052413;28;20029;-78
2020/12/17 03:11:21;;;;;;;85.47;41.85;;;8.00;99.90;;;;;;5067857;28;20112;-78
2020/12/17 03:13:47;;;;;;;81.90;41.15;;;8.00;99.90;;;;;;5052312;28;20021;-78
2020/12/17 03:16:12;;;;;;;82.65;41.53;;;7.90;99.90;;;;;;5067681;28;20025;-78
2020/12/17 03:18:38;;;;;;;85.60;42.83;;;7.90;99.90;;;;;;5052439;28;20394;-79
2020/12/17 03:21:03;;;;;;;75.10;40.50;;;7.80;99.90;;;;;;5067792;28;20067;-78
2020/12/17 03:23:29;;;;;;;90.10;42.60;;;7.90;99.90;;;;;;5052267;28;20025;-78
2020/12/17 03:25:55;;;;;;;86.68;40.65;;;8.00;99.90;;;;;;5051996;28;20028;-78
2020/12/17 03:28:20;;;;;;;79.50;41.38;;;7.90;99.90;;;;;;5052257;28;20031;-78
2020/12/17 03:30:46;;;;;;;83.70;41.63;;;7.90;99.90;;;;;;5067633;28;20029;-78
2020/12/17 03:33:12;;;;;;;83.88;42.60;;;7.90;99.90;;;;;;5067526;28;20025;-79
2020/12/17 03:35:37;;;;;;;83.05;42.08;;;7.90;99.90;;;;;;5050809;28;20495;-78
2020/12/17 03:38:03;;;;;;;85.60;42.47;;;7.90;99.90;;;;;;5051230;28;20615;-79
2020/12/17 03:40:29;;;;;;;83.47;41.65;;;7.90;99.90;;;;;;5051591;28;20035;-79
2020/12/17 03:42:55;;;;;;;85.30;43.40;;;7.90;99.90;;;;;;5052072;28;20029;-78
2020/12/17 03:45:21;;;;;;;85.80;43.17;;;7.90;99.90;;;;;;5067341;28;20033;-79
2020/12/17 03:47:47;;;;;;;88.78;41.72;;;7.90;99.90;;;;;;5067309;28;20029;-79
2020/12/17 03:50:13;;;;;;;93.63;43.33;;;7.90;99.90;;;;;;5061692;28;20060;-78
2020/12/17 03:52:39;;;;;;;83.22;41.22;;;7.90;99.90;;;;;;5070585;28;20452;-79
2020/12/17 03:55:06;;;;;;;96.93;42.38;;;7.90;99.90;;;;;;5071737;28;20469;-78
2020/12/17 03:57:32;;;;;;;87.38;42.30;;;8.00;99.90;;;;;;5071894;28;20028;-78
2020/12/17 03:59:57;;;;;;;102.63;43.40;;;7.90;99.90;;;;;;5070597;28;20480;-79
2020/12/17 04:02:23;;;;;;;93.57;45.28;;;7.80;99.90;;;;;;5070965;28;20120;-78
2020/12/17 04:04:48;;;;;;;98.80;44.10;;;7.80;99.90;;;;;;5070365;28;20029;-78
2020/12/17 04:07:15;;;;;;;81.70;43.95;;;7.80;99.90;;;;;;5071747;28;20028;-78
2020/12/17 04:09:41;;;;;;;84.80;41.97;;;7.80;99.90;;;;;;5071815;28;20025;-79
2020/12/17 04:12:06;;;;;;;90.70;45.10;;;7.80;99.90;;;;;;5071819;28;20081;-78
2020/12/17 04:14:32;;;;;;;84.28;41.85;;;7.80;99.90;;;;;;5070430;28;20396;-78
2020/12/17 04:16:58;;;;;;;93.85;43.53;;;7.80;99.90;;;;;;5071574;28;20047;-78
2020/12/17 04:19:24;;;;;;;90.32;42.78;;;7.80;99.90;;;;;;5070438;28;20021;-78
2020/12/17 04:21:49;;;;;;;93.30;44.33;;;7.80;99.90;;;;;;5070436;28;20021;-78
2020/12/17 04:24:15;;;;;;;86.20;42.55;;;7.80;99.90;;;;;;5071464;28;20116;-78
2020/12/17 04:26:40;;;;;;;97.75;43.38;;;7.90;99.90;;;;;;5070359;28;20028;-79
2020/12/17 04:29:06;;;;;;;93.00;42.65;;;7.90;99.90;;;;;;5071783;28;20392;-78
2020/12/17 04:31:32;;;;;;;84.88;40.75;;;7.80;99.90;;;;;;5070574;28;20024;-78
2020/12/17 04:33:58;;;;;;;82.82;42.08;;;7.90;99.90;;;;;;5070430;28;20013;-78
2020/12/17 04:36:24;;;;;;;86.28;44.17;;;7.80;99.90;;;;;;5071625;28;20465;-78
2020/12/17 04:38:51;;;;;;;83.78;43.05;;;7.80;99.90;;;;;;5070610;28;20024;-78
2020/12/17 04:41:20;;;;;;;100.25;46.08;;;7.80;99.90;;;;;;5072057;28;20032;-78
2020/12/17 04:43:46;;;;;;;95.38;43.38;;;7.80;99.90;;;;;;5072071;28;20028;-78
2020/12/17 04:46:14;;;;;;;96.20;43.65;;;7.80;99.90;;;;;;5071667;28;20104;-78
2020/12/17 04:48:44;;;;;;;83.80;42.17;;;7.80;99.90;;;;;;5070340;28;20381;-78
2020/12/17 04:51:11;;;;;;;93.28;43.22;;;7.80;99.90;;;;;;5071611;28;20020;-78
2020/12/17 04:53:38;;;;;;;94.35;44.10;;;7.80;99.90;;;;;;5074078;28;20510;-78
2020/12/17 04:56:04;;;;;;;93.72;44.33;;;7.80;99.90;;;;;;5073731;28;20021;-78
2020/12/17 04:58:32;;;;;;;81.72;42.13;;;7.80;99.90;;;;;;5075166;28;20099;-78
2020/12/17 05:00:57;;;;;;;85.75;42.03;;;7.80;99.90;;;;;;5075028;28;20021;-79
2020/12/17 05:03:23;;;;;;;93.60;43.20;;;7.80;99.90;;;;;;5073705;28;20032;-78
2020/12/17 05:05:52;;;;;;;85.40;43.75;;;7.80;99.90;;;;;;5073521;28;20029;-78
2020/12/17 05:08:21;;;;;;;89.05;41.60;;;7.80;99.90;;;;;;5073596;28;20028;-78
2020/12/17 05:10:48;;;;;;;86.72;42.10;;;7.80;99.90;;;;;;5074853;28;20480;-78
2020/12/17 05:13:16;;;;;;;85.25;43.25;;;7.80;99.90;;;;;;5074820;28;20028;-78
2020/12/17 05:15:42;;;;;;;82.38;42.33;;;7.80;99.90;;;;;;5074535;28;20032;-78
2020/12/17 05:18:08;;;;;;;89.07;41.13;;;7.80;99.90;;;;;;5074638;28;20082;-78
2020/12/17 05:20:39;;;;;;;94.45;42.83;;;7.80;99.90;;;;;;5074761;28;20082;-78
2020/12/17 05:23:05;;;;;;;78.68;39.90;;;7.70;99.90;;;;;;5074590;28;20439;-78
2020/12/17 05:25:31;;;;;;;88.50;45.72;;;7.70;99.90;;;;;;5073225;28;20020;-78
2020/12/17 05:28:00;;;;;;;81.40;41.92;;;7.70;99.90;;;;;;5074500;28;20479;-78
2020/12/17 05:30:33;;;;;;;88.40;42.17;;;7.80;99.90;;;;;;5074568;28;20021;-78
2020/12/17 05:33:00;;;;;;;91.90;42.13;;;7.80;99.90;;;;;;5074479;28;20044;-78
2020/12/17 05:35:35;;;;;;;88.10;42.92;;;7.70;99.90;;;;;;5072961;28;20485;-78
2020/12/17 05:38:03;;;;;;;84.30;39.92;;;7.80;99.90;;;;;;5074308;28;20045;-78
2020/12/17 05:40:35;;;;;;;85.65;42.17;;;7.80;99.90;;;;;;5074469;28;20462;-78
2020/12/17 05:43:00;;;;;;;87.28;41.50;;;7.80;99.90;;;;;;5074270;28;20098;-79
2020/12/17 05:45:27;;;;;;;93.25;45.00;;;7.80;99.90;;;;;;5074025;28;20033;-78
2020/12/17 05:48:15;;;;;;;86.15;42.53;;;7.90;99.90;;;;;;5072731;28;20413;-78
2020/12/17 05:50:57;;;;;;;89.53;44.70;;;7.80;99.90;;;;;;5059249;28;20033;-78
2020/12/17 05:53:31;;;;;;;89.78;42.15;;;7.80;99.90;;;;;;5052806;28;20021;-78
2020/12/17 05:56:04;;;;;;;;;;;7.90;99.90;;;;;;5052961;28;20468;-78
2020/12/17 05:58:43;;;;;;;82.72;42.15;;;7.90;99.90;;;;;;5052722;28;20365;-79
2020/12/17 06:01:17;;;;;;;89.65;43.58;;;7.90;99.90;;;;;;5054079;28;20029;-78
2020/12/17 06:03:44;;;;;;;78.20;41.13;;;7.90;99.90;;;;;;5053379;28;20025;-79
2020/12/17 06:06:10;;;;;;;95.65;42.22;;;8.00;99.90;;;;;;5053657;28;20029;-79
2020/12/17 06:08:38;;;;;;;85.03;42.60;;;7.90;99.90;;;;;;5053751;28;20029;-78
2020/12/17 06:11:13;;;;;;;79.07;39.78;;;7.90;99.90;;;;;;5053698;28;20025;-78
2020/12/17 06:13:40;;;;;;;77.40;40.20;;;7.90;99.90;;;;;;5052496;28;20040;-78
2020/12/17 06:16:07;;;;;;;79.57;41.45;;;7.90;99.90;;;;;;5052285;28;20036;-79
2020/12/17 06:18:51;;;;;;;76.38;40.47;;;7.90;99.90;;;;;;5052338;28;20539;-78
2020/12/17 06:21:18;;;;;;;80.32;37.72;;;7.90;99.90;;;;;;5052366;28;20134;-79
2020/12/17 06:23:44;;;;;;;81.68;41.95;;;7.90;99.90;;;;;;5053305;28;20025;-78
2020/12/17 06:26:11;;;;;;;80.35;40.22;;;7.90;99.90;;;;;;5053605;28;20374;-79
2020/12/17 06:28:47;;;;;;;85.28;40.40;;;7.80;99.90;;;;;;5052170;28;20440;-78
2020/12/17 06:31:18;;;;;;;78.30;38.47;;;7.80;99.90;;;;;;5053468;28;20049;-78
2020/12/17 06:33:44;;;;;;;79.07;39.78;;;7.80;99.90;;;;;;5052043;28;20017;-78
2020/12/17 06:36:21;;;;;;;77.95;39.05;;;7.90;99.90;;;;;;5053230;28;20021;-78
2020/12/17 06:38:47;;;;;;;85.95;42.53;;;7.90;99.90;;;;;;5053490;28;20032;-78
2020/12/17 06:41:23;;;;;;;88.28;40.65;;;8.00;99.90;;;;;;5053368;28;20028;-78
2020/12/17 06:43:49;;;;;;;89.55;39.78;;;7.80;99.90;;;;;;5051834;28;20029;-78
2020/12/17 06:46:34;;;;;;;77.00;40.05;;;7.80;99.90;;;;;;5053096;28;20044;-78
2020/12/17 06:49:01;;;;;;;76.95;38.95;;;7.80;99.90;;;;;;5053045;28;20018;-78
2020/12/17 06:51:32;;;;;;;92.60;41.67;;;7.80;99.90;;;;;;5072805;28;20066;-78
2020/12/17 06:53:59;;;;;;;77.35;39.88;;;7.80;99.90;;;;;;5071591;28;20021;-78
2020/12/17 06:56:25;;;;;;;85.38;40.75;;;7.80;99.90;;;;;;5072829;28;20104;-78
2020/12/17 06:59:17;;;;;;;83.97;40.47;;;7.80;99.90;;;;;;5071833;28;20119;-78
2020/12/17 07:01:44;;;;;;;90.38;41.55;;;7.80;99.90;;;;;;5072920;28;20621;-79
2020/12/17 07:04:10;;;;;;;82.43;42.03;;;7.80;99.90;;;;;;5072748;28;20112;-79
2020/12/17 07:06:35;;;;;;;86.93;41.60;;;7.70;99.90;;;;;;5072687;28;20630;-78
2020/12/17 07:09:02;;;;;;;93.20;41.03;;;7.70;99.90;;;;;;5072878;28;20033;-78
2020/12/17 07:11:38;;;;;;;85.15;42.05;;;7.80;99.90;;;;;;5071696;28;20020;-78
2020/12/17 07:14:05;;;;;;;88.72;41.83;;;7.80;99.90;;;;;;5072706;28;20027;-78
2020/12/17 07:16:37;;;;;;;81.63;39.83;;;7.80;99.90;;;;;;5070952;28;20669;-78
2020/12/17 07:19:21;;;;;;;91.03;42.55;;;7.80;99.90;;;;;;5073216;28;20107;-78
2020/12/17 07:21:59;;;;;;;90.43;43.97;;;7.80;99.90;;;;;;5066199;28;20052;-78
2020/12/17 07:24:36;;;;;;;90.05;42.25;;;7.80;99.90;;;;;;5057948;28;20052;-78
2020/12/17 07:27:09;;;;;;;91.32;43.45;;;7.90;99.90;;;;;;5051465;28;20032;-78
2020/12/17 07:29:48;;;;;;;87.03;41.35;;;7.90;99.90;;;;;;5069214;28;20557;-78
2020/12/17 07:32:25;;;;;;;89.88;43.13;;;7.90;99.90;;;;;;5071235;28;20039;-78
2020/12/17 07:34:52;;;;;;;96.75;41.97;;;7.90;99.90;;;;;;5091558;28;20043;-78
2020/12/17 07:37:38;;;;;;;85.68;42.22;;;7.90;99.90;;;;;;5091741;28;20423;-79
2020/12/17 07:40:43;;;;;;;93.53;42.25;;;8.00;99.90;;;;;;5087483;28;20020;-79
2020/12/17 07:43:13;;;;;;;84.85;40.97;;;7.90;99.90;;;;;;5071016;28;20038;-78
2020/12/17 07:45:51;;;;;;;90.30;42.63;;;7.90;99.90;;;;;;5070629;28;20025;-78
2020/12/17 07:48:49;;;;;;;92.32;42.97;;;7.90;99.90;;;;;;5071877;28;20021;-78
2020/12/17 07:51:14;;;;;;;93.25;44.42;;;7.90;99.90;;;;;;5053672;28;20021;-78
2020/12/17 07:53:41;;;;;;;89.40;43.88;;;7.90;99.90;;;;;;5050576;28;20090;-78
2020/12/17 07:56:07;;;;;;;102.63;44.60;;;7.90;99.90;;;;;;5050454;28;20112;-79
2020/12/17 07:58:34;;;;;;;93.95;44.55;;;7.90;99.90;;;;;;5051644;28;20029;-78
2020/12/17 08:01:00;;;;;;;97.78;46.05;;;7.90;99.90;;;;;;5054295;28;20534;-78
2020/12/17 08:03:27;;;;;;;102.40;45.63;;;7.90;99.90;;;;;;5070092;28;20024;-78
2020/12/17 08:06:06;;;;;;;96.05;46.38;;;7.90;99.90;;;;;;5071252;28;20021;-78
2020/12/17 08:08:32;;;;;;;104.10;44.25;;;7.80;99.90;;;;;;5071584;28;20365;-78
2020/12/17 08:10:58;;;;;;;92.85;43.78;;;7.90;99.90;;;;;;5071488;28;20103;-78
2020/12/17 08:13:25;;;;;;;110.90;46.13;;;7.80;99.90;;;;;;5071584;28;20074;-78
2020/12/17 08:16:01;;;;;;;90.82;45.15;;;7.80;99.90;;;;;;5071415;28;20633;-78
2020/12/17 08:18:31;;;;;;;96.30;45.28;;;7.90;99.90;;;;;;5071814;28;20082;-78
2020/12/17 08:21:10;;;;;;;113.50;48.38;;;7.80;99.90;;;;;;5070378;28;20063;-79
2020/12/17 08:23:41;;;;;;;103.10;47.03;;;7.80;99.90;;;;;;5071310;28;20043;-78
2020/12/17 08:26:11;;;;;;;103.35;47.65;;;7.80;99.90;;;;;;5071816;28;20032;-79
2020/12/17 08:28:39;;;;;;;116.05;48.15;;;7.80;99.90;;;;;;5075585;28;20028;-78
2020/12/17 08:31:28;;;;;;;105.30;48.17;;;7.90;99.90;;;;;;5075578;28;20020;-78
2020/12/17 08:33:56;;;;;;;104.90;48.67;;;7.90;99.90;;;;;;5072200;28;20032;-78
2020/12/17 08:36:27;;;;;;;99.30;46.38;;;7.90;99.90;;;;;;5075375;28;20021;-78
2020/12/17 08:38:59;;;;;;;104.03;45.08;;;7.80;99.90;;;;;;5074210;28;20462;-78
2020/12/17 08:41:46;;;;;;;96.32;45.72;;;7.80;99.90;;;;;;5064907;28;20029;-77
2020/12/17 08:44:15;;;;;;;100.82;46.33;;;7.80;99.90;;;;;;5054195;28;20037;-78
2020/12/17 08:47:07;;;;;;;106.10;47.17;;;7.90;99.90;;;;;;5053912;28;20098;-78
2020/12/17 08:49:33;;;;;;;109.25;48.97;;;7.90;99.90;;;;;;5065066;28;20029;-78
2020/12/17 08:51:59;;;;;;;112.28;48.08;;;7.90;99.90;;;;;;5055330;28;20025;-77
2020/12/17 08:54:27;;;;;;;103.40;46.55;;;7.90;99.90;;;;;;5054887;28;20443;-78
2020/12/17 08:57:05;;;;;;;102.82;47.35;;;7.90;99.90;;;;;;5053581;28;20112;-78
2020/12/17 08:59:31;;;;;;;101.28;48.13;;;7.90;99.90;;;;;;5053666;28;20021;-78
2020/12/17 09:01:57;;;;;;;116.20;49.05;;;7.90;99.90;;;;;;5054830;28;20025;-78
2020/12/17 09:04:23;;;;;;;105.45;47.63;;;7.90;99.90;;;;;;5056241;28;20028;-77
2020/12/17 09:06:57;;;;;;;110.32;47.33;;;7.90;99.90;;;;;;5074859;28;20028;-78
2020/12/17 09:09:25;;;;;;;110.45;46.17;;;7.90;99.90;;;;;;5074638;28;20051;-78
2020/12/17 09:11:52;;;;;;;108.70;47.13;;;7.90;99.90;;;;;;5069951;28;20181;-78
2020/12/17 09:14:21;;;;;;;112.13;47.20;;;7.90;99.90;;;;;;5061444;28;20025;-78
2020/12/17 09:16:49;;;;;;;116.35;49.47;;;7.90;99.90;;;;;;5053979;28;20029;-78
2020/12/17 09:19:15;;;;;;;115.05;47.20;;;7.90;99.90;;;;;;5053295;28;20155;-78
2020/12/17 09:21:53;;;;;;;104.95;46.45;;;7.90;99.90;;;;;;5058844;28;20051;-78
2020/12/17 09:24:28;;;;;;;101.72;46.63;;;7.90;99.90;;;;;;5074217;28;20028;-78
2020/12/17 09:26:54;;;;;;;108.95;48.78;;;8.00;99.90;;;;;;5074396;28;20499;-78
2020/12/17 09:29:20;;;;;;;104.18;45.25;;;8.00;99.90;;;;;;5074383;28;20031;-77
2020/12/17 09:31:46;;;;;;;108.00;47.70;;;8.00;99.90;;;;;;5074381;28;20020;-77
2020/12/17 09:34:14;;;;;;;101.43;45.92;;;8.00;99.90;;;;;;5074097;28;20469;-78
2020/12/17 09:36:42;;;;;;;97.47;45.17;;;8.00;99.90;;;;;;5072753;28;20401;-78
2020/12/17 09:39:14;;;;;;;103.03;47.40;;;8.00;99.90;;;;;;5073469;28;20052;-78
2020/12/17 09:41:51;;;;;;;104.50;45.58;;;8.00;99.90;;;;;;5072997;28;20032;-77
2020/12/17 09:44:26;;;;;;;103.65;46.97;;;8.10;99.90;;;;;;5072834;28;20059;-77
2020/12/17 09:46:52;;;;;;;95.63;42.97;;;8.00;99.90;;;;;;5072467;28;20101;-79
2020/12/17 09:49:26;;;;;;;108.18;43.88;;;8.00;99.90;;;;;;5070661;28;20020;-78
2020/12/17 09:52:10;;;;;;;91.55;42.42;;;8.10;99.90;;;;;;5068631;28;20386;-78
2020/12/17 09:54:43;;;;;;;;;;;8.00;99.90;;;;;;5066379;28;20036;-78
2020/12/17 09:57:15;;;;;;;93.75;42.08;;;8.00;99.90;;;;;;5057622;28;19946;-77
2020/12/17 09:59:43;;;;;;;94.70;44.33;;;8.00;99.90;;;;;;5071810;28;20107;-78
2020/12/17 10:02:15;;;;;;;92.65;41.47;;;8.10;99.90;;;;;;5063748;28;20021;-78
2020/12/17 10:04:41;;;;;;;76.35;37.75;;;8.00;99.90;;;;;;5071375;28;20136;-79
2020/12/17 10:07:10;;;;;;;92.03;41.10;;;8.00;99.90;;;;;;5071114;28;20533;-78
2020/12/17 10:09:36;;;;;;;89.13;41.55;;;8.10;99.90;;;;;;5058900;28;20083;-78
2020/12/17 10:12:02;;;;;;;90.93;41.65;;;8.10;99.90;;;;;;5070986;28;20028;-78
2020/12/17 10:14:28;;;;;;;76.43;37.90;;;8.00;99.90;;;;;;5072607;28;20021;-78
2020/12/17 10:16:59;;;;;;;80.38;37.65;;;8.20;99.90;;;;;;5064112;28;20076;-78
2020/12/17 10:19:27;;;;;;;88.68;39.05;;;8.10;99.90;;;;;;5073390;28;20024;-78
2020/12/17 10:21:52;;;;;;;86.22;38.38;;;8.10;99.90;;;;;;5060794;28;20028;-78
2020/12/17 10:24:18;;;;;;;87.85;39.92;;;8.10;99.90;;;;;;5072681;28;20095;-79
2020/12/17 10:26:44;;;;;;;75.25;37.10;;;8.10;99.90;;;;;;5071609;28;20033;-77
2020/12/17 10:29:09;;;;;;;83.53;36.90;;;8.10;99.90;;;;;;5063796;28;20025;-77
2020/12/17 10:31:35;;;;;;;81.25;37.03;;;8.10;99.90;;;;;;5052048;28;20504;-79
2020/12/17 10:34:01;;;;;;;69.45;33.28;;;8.20;99.90;;;;;;5052704;28;20033;-78
2020/12/17 10:36:27;;;;;;;75.18;34.58;;;8.10;99.90;;;;;;5051826;28;20032;-78
2020/12/17 10:38:53;;;;;;;72.35;33.42;;;8.20;99.90;;;;;;5052976;28;20028;-79
2020/12/17 10:41:26;;;;;;;71.13;33.08;;;8.20;99.90;;;;;;5066507;28;20035;-79
2020/12/17 10:43:53;;;;;;;60.97;30.23;;;8.20;99.90;;;;;;5091443;28;20639;-79
2020/12/17 10:46:19;;;;;;;53.42;26.20;;;8.10;99.90;;;;;;5093222;28;20039;-80
2020/12/17 10:48:45;;;;;;;56.30;29.00;;;8.20;99.90;;;;;;5092961;28;20024;-79
2020/12/17 10:51:16;;;;;;;61.28;28.98;;;8.10;99.90;;;;;;5073193;28;20233;-79
2020/12/17 10:53:42;;;;;;;57.88;29.13;;;8.00;99.90;;;;;;5060124;28;20043;-80
2020/12/17 10:56:09;;;;;;;60.75;30.25;;;8.10;99.90;;;;;;5052602;28;20027;-80
2020/12/17 10:58:35;;;;;;;66.88;31.67;;;8.00;99.90;;;;;;5051437;28;20024;-78
2020/12/17 11:01:00;;;;;;;58.92;30.17;;;8.00;99.90;;;;;;5065069;28;20074;-80
2020/12/17 11:03:27;;;;;;;60.38;29.40;;;7.90;99.90;;;;;;5072352;28;20043;-78
2020/12/17 11:05:53;;;;;;;67.30;30.48;;;8.00;99.90;;;;;;5081388;28;20055;-80
2020/12/17 11:08:19;;;;;;;66.25;33.22;;;8.10;99.90;;;;;;5075145;28;20067;-79
2020/12/17 11:10:45;;;;;;;71.53;29.58;;;8.00;99.90;;;;;;5072422;28;20021;-79
2020/12/17 11:13:10;;;;;;;69.68;30.92;;;8.00;99.90;;;;;;5070936;28;20078;-79
2020/12/17 11:15:36;;;;;;;63.85;29.05;;;8.00;99.90;;;;;;5071867;28;20025;-79
2020/12/17 11:18:02;;;;;;;63.92;29.33;;;8.10;99.90;;;;;;5077705;28;20082;-83
2020/12/17 11:20:27;;;;;;;67.35;27.58;;;8.00;99.90;;;;;;5071221;28;20028;-79
2020/12/17 11:22:53;;;;;;;57.13;27.35;;;8.00;99.90;;;;;;5059786;28;20477;-79
2020/12/17 11:25:18;;;;;;;57.85;27.27;;;8.00;99.90;;;;;;5051684;28;20058;-79
2020/12/17 11:27:44;;;;;;;69.30;27.10;;;8.00;99.90;;;;;;5057275;28;20158;-80
2020/12/17 11:30:10;;;;;;;60.38;26.05;;;8.00;99.90;;;;;;5081078;28;20020;-79
2020/12/17 11:32:35;;;;;;;64.78;25.27;;;8.00;99.90;;;;;;5092489;28;20059;-80
2020/12/17 11:35:06;;;;;;;56.88;26.45;;;7.90;99.90;;;;;;5089800;28;20024;-80
2020/12/17 11:37:33;;;;;;;52.95;23.58;;;7.90;99.90;;;;;;5080192;28;20029;-81
2020/12/17 11:39:59;;;;;;;61.53;24.95;;;7.90;99.90;;;;;;5070720;28;20031;-80
2020/12/17 11:42:24;;;;;;;53.92;21.15;;;7.90;99.90;;;;;;5081852;28;20028;-80
2020/12/17 11:44:50;;;;;;;49.85;21.05;;;8.00;99.90;;;;;;5091586;28;20032;-79
2020/12/17 11:47:15;;;;;;;46.28;21.25;;;7.90;99.90;;;;;;5086431;28;20439;-79
2020/12/17 11:49:42;;;;;;;57.85;21.50;;;7.90;99.90;;;;;;5051957;28;20028;-80
2020/12/17 11:52:07;;;;;;;46.53;19.88;;;7.90;99.90;;;;;;5051335;28;20429;-79
2020/12/17 11:54:33;;;;;;;38.58;16.65;;;7.90;99.90;;;;;;5048637;28;20022;-80
2020/12/17 11:56:59;;;;;;;43.85;16.90;;;7.90;99.90;;;;;;5055867;28;20024;-80
2020/12/17 11:59:24;;;;;;;40.30;17.25;;;7.80;99.90;;;;;;5051852;28;20044;-79
2020/12/17 12:01:50;;;;;;;39.05;17.08;;;8.10;99.90;;;;;;5053311;28;20488;-79
2020/12/17 12:04:15;;;;;;;37.00;17.63;;;7.90;99.90;;;;;;5051171;28;20495;-78
2020/12/17 12:06:41;;;;;;;36.63;15.90;;;7.90;99.90;;;;;;5064873;28;20043;-78
2020/12/17 12:09:07;;;;;;;32.95;14.27;;;7.90;99.90;;;;;;5071385;28;20104;-78
2020/12/17 12:11:34;;;;;;;28.45;14.38;;;7.90;99.90;;;;;;5070976;28;20024;-78
2020/12/17 12:13:59;;;;;;;29.10;12.15;;;7.90;99.90;;;;;;5071270;28;20016;-78
2020/12/17 12:16:25;;;;;;;31.50;14.77;;;7.90;99.90;;;;;;5066027;28;20059;-80
2020/12/17 12:18:51;;;;;;;27.75;12.80;;;7.90;99.90;;;;;;5066193;28;20470;-79
2020/12/17 12:21:17;;;;;;;29.23;12.40;;;7.90;99.90;;;;;;5071617;28;20112;-79
2020/12/17 12:23:46;;;;;;;33.75;13.50;;;8.00;99.90;;;;;;5051589;28;20061;-78
2020/12/17 12:26:12;;;;;;;40.05;15.90;;;8.00;99.90;;;;;;5062698;28;20504;-79
2020/12/17 12:28:38;;;;;;;40.08;14.68;;;8.00;99.90;;;;;;5051160;28;20033;-79
2020/12/17 12:31:05;;;;;;;30.75;14.00;;;8.00;99.90;;;;;;5066647;28;20052;-79
2020/12/17 12:33:31;;;;;;;35.28;12.77;;;8.10;99.90;;;;;;5057627;28;20497;-79
2020/12/17 12:35:57;;;;;;;24.55;11.05;;;8.10;99.90;;;;;;5066335;28;20029;-80
2020/12/17 12:38:23;;;;;;;25.10;10.57;;;8.10;99.90;;;;;;5066706;28;20584;-79
2020/12/17 12:40:48;;;;;;;28.42;9.55;;;7.90;99.90;;;;;;5066801;28;20123;-80